Time;durP1;ratioP1;P1;durP2;ratioP2;P2;SDS_P1;SDS_P2;PMS_P1;PMS_P2;Temp;Humidity;BMP_temperature;BMP_pressure;BME280_temperature;BME280_humidity;BME280_pressure;Samples;Min_cycle;Max_cycle;Signal;HPM_P1;HPM_P2
2023/04/12 00:02:28;;;;;;;18.27;10.90;;;;;;;;;;5051549;28;20044;-75
2023/04/12 00:05:33;;;;;;;21.83;10.82;;;;;;;;;;5051441;28;20048;-75
2023/04/12 00:08:37;;;;;;;16.33;11.45;;;;;;;;;;5051304;28;20055;-75
2023/04/12 00:11:41;;;;;;;21.80;11.98;;;;;;;;;;5039066;28;20111;-75
2023/04/12 00:14:46;;;;;;;19.23;11.75;;;;;;;;;;5051187;28;20070;-76
2023/04/12 00:17:50;;;;;;;22.48;12.15;;;14.00;94.70;;;;;;5049941;28;20040;-75
2023/04/12 00:20:56;;;;;;;21.50;11.88;;;12.80;94.50;;;;;;5050838;28;20056;-75
2023/04/12 00:24:00;;;;;;;20.00;10.95;;;14.20;94.70;;;;;;5051263;28;20044;-76
2023/04/12 00:27:05;;;;;;;25.80;12.07;;;;;;;;;;5050810;28;20519;-75
2023/04/12 00:30:09;;;;;;;19.92;10.65;;;14.80;94.90;;;;;;5050732;28;20044;-75
2023/04/12 00:33:13;;;;;;;15.75;10.02;;;;;;;;;;5050285;28;20068;-75
2023/04/12 00:36:17;;;;;;;21.45;9.90;;;;;;;;;;5050958;28;20036;-75
2023/04/12 00:39:22;;;;;;;21.00;10.23;;;;;;;;;;5050780;28;20397;-75
2023/04/12 00:42:26;;;;;;;25.20;10.85;;;;;;;;;;5050996;28;20048;-75
2023/04/12 00:45:30;;;;;;;17.58;9.93;;;13.60;94.70;;;;;;5038581;28;20388;-75
2023/04/12 00:48:36;;;;;;;19.50;10.23;;;13.30;95.30;;;;;;5050474;28;20500;-74
2023/04/12 00:51:41;;;;;;;16.42;9.55;;;;;;;;;;5049659;28;20048;-74
2023/04/12 00:54:45;;;;;;;16.50;9.18;;;;;;;;;;5049859;28;20040;-74
2023/04/12 00:57:50;;;;;;;18.88;9.25;;;;;;;;;;5049685;28;20048;-74
2023/04/12 01:00:55;;;;;;;17.67;9.18;;;;;;;;;;5050429;28;20053;-75
2023/04/12 01:04:03;;;;;;;16.50;8.70;;;;;;;;;;5049893;28;20046;-75
2023/04/12 01:07:14;;;;;;;16.27;9.57;;;13.60;95.40;;;;;;5049602;28;20048;-75
2023/04/12 01:10:42;;;;;;;14.75;9.57;;;13.60;95.10;;;;;;5049643;28;20191;-75
2023/04/12 01:14:22;;;;;;;18.05;9.50;;;13.20;95.80;;;;;;5049800;28;20120;-75
2023/04/12 01:17:36;;;;;;;13.93;8.32;;;13.30;96.00;;;;;;5049535;28;20044;-75
2023/04/12 01:20:47;;;;;;;12.27;7.70;;;13.30;95.90;;;;;;5049632;28;20052;-75
2023/04/12 01:23:51;;;;;;;13.25;8.38;;;;;;;;;;5050654;28;20116;-75
2023/04/12 01:27:00;;;;;;;16.60;8.00;;;13.40;96.00;;;;;;5049411;28;20052;-75
2023/04/12 01:30:07;;;;;;;14.38;7.68;;;13.50;95.90;;;;;;5054360;28;20040;-75
2023/04/12 01:33:12;;;;;;;18.00;8.70;;;;;;;;;;5054153;28;20044;-75
2023/04/12 01:36:21;;;;;;;17.33;8.02;;;13.30;95.50;;;;;;5054000;28;20040;-75
2023/04/12 01:39:26;;;;;;;18.33;8.52;;;13.20;96.20;;;;;;5054051;28;20052;-75
2023/04/12 01:42:30;;;;;;;12.80;7.80;;;;;;;;;;5054079;28;20040;-75
2023/04/12 01:45:34;;;;;;;14.13;7.95;;;12.90;96.70;;;;;;5054021;28;20393;-75
2023/04/12 01:48:42;;;;;;;16.20;8.45;;;;;;;;;;5053478;28;20036;-75
2023/04/12 01:51:51;;;;;;;20.05;8.70;;;13.10;96.70;;;;;;5053922;28;20504;-75
2023/04/12 01:54:57;;;;;;;15.38;9.10;;;13.10;96.80;;;;;;5053689;28;20044;-75
2023/04/12 01:58:02;;;;;;;13.98;8.50;;;13.10;96.70;;;;;;5053591;28;20052;-74
2023/04/12 02:01:08;;;;;;;17.02;8.55;;;12.90;96.90;;;;;;5052721;28;20048;-74
2023/04/12 02:04:17;;;;;;;13.73;8.27;;;13.10;97.20;;;;;;5052659;28;20499;-74
2023/04/12 02:07:23;;;;;;;13.60;8.75;;;;;;;;;;5052580;28;20043;-75
2023/04/12 02:10:31;;;;;;;13.50;8.48;;;10.80;96.40;;;;;;5052609;28;20413;-74
2023/04/12 02:13:35;;;;;;;13.07;8.75;;;12.90;97.30;;;;;;5052618;28;20048;-75
2023/04/12 02:16:41;;;;;;;16.08;8.40;;;;;;;;;;5053068;28;20048;-75
2023/04/12 02:19:46;;;;;;;18.42;8.90;;;12.80;97.40;;;;;;5052249;28;20052;-75
2023/04/12 02:22:50;;;;;;;13.65;8.85;;;12.90;97.50;;;;;;5052306;28;20040;-75
2023/04/12 02:25:54;;;;;;;18.10;9.25;;;13.10;97.40;;;;;;5053078;28;20236;-74
2023/04/12 02:28:58;;;;;;;21.98;9.85;;;12.80;97.80;;;;;;5052184;28;20048;-75
2023/04/12 02:32:02;;;;;;;13.25;9.15;;;12.40;97.80;;;;;;5052435;28;20044;-75
2023/04/12 02:35:07;;;;;;;16.05;9.02;;;12.50;98.20;;;;;;5052000;28;20056;-75
2023/04/12 02:38:12;;;;;;;16.58;9.63;;;12.50;98.40;;;;;;5051849;28;20043;-74
2023/04/12 02:41:19;;;;;;;16.98;9.52;;;12.60;98.30;;;;;;5051420;28;20052;-75
2023/04/12 02:44:24;;;;;;;15.07;9.43;;;12.80;98.30;;;;;;5052248;28;20044;-74
2023/04/12 02:47:44;;;;;;;17.40;9.75;;;12.80;98.20;;;;;;5051760;28;20050;-74
2023/04/12 02:50:48;;;;;;;23.05;10.05;;;12.90;98.00;;;;;;5052026;28;20397;-74
2023/04/12 02:53:56;;;;;;;20.30;11.00;;;12.80;97.60;;;;;;5052522;28;20063;-74
2023/04/12 02:57:03;;;;;;;23.27;10.45;;;12.70;97.80;;;;;;5051815;28;20044;-74
2023/04/12 03:00:14;;;;;;;14.45;9.73;;;12.50;98.30;;;;;;5051217;28;20052;-74
2023/04/12 03:03:21;;;;;;;17.85;11.18;;;12.70;98.20;;;;;;5051868;28;20551;-74
2023/04/12 03:06:30;;;;;;;28.70;13.95;;;;;;;;;;5051943;28;20048;-75
2023/04/12 03:09:37;;;;;;;31.60;18.10;;;12.50;97.70;;;;;;5051901;28;20139;-75
2023/04/12 03:12:41;;;;;;;32.67;17.75;;;12.50;97.80;;;;;;5051434;28;20051;-75
2023/04/12 03:15:58;;;;;;;23.15;12.93;;;12.30;98.00;;;;;;5051659;28;20060;-75
2023/04/12 03:19:09;;;;;;;37.22;19.98;;;12.30;98.20;;;;;;5051256;28;20052;-75
2023/04/12 03:22:13;;;;;;;31.67;15.70;;;12.30;98.50;;;;;;5051284;28;20428;-75
2023/04/12 03:25:22;;;;;;;33.00;17.05;;;;;;;;;;5051025;28;20060;-75
2023/04/12 03:28:32;;;;;;;41.60;19.50;;;;;;;;;;5051310;28;20107;-75
2023/04/12 03:31:37;;;;;;;36.75;19.90;;;12.20;98.40;;;;;;5051357;28;20056;-75
2023/04/12 03:34:45;;;;;;;31.95;20.23;;;12.20;98.70;;;;;;5050990;28;20055;-75
2023/04/12 03:37:52;;;;;;;26.00;14.50;;;12.30;98.90;;;;;;5051019;28;20044;-75
2023/04/12 03:40:56;;;;;;;20.42;13.68;;;;;;;;;;5051870;28;20071;-75
2023/04/12 03:44:07;;;;;;;17.95;12.63;;;;;;;;;;5051151;28;20044;-75
2023/04/12 03:47:12;;;;;;;21.85;12.70;;;;;;;;;;5050730;28;20047;-75
2023/04/12 03:50:16;;;;;;;17.92;10.43;;;12.40;98.50;;;;;;5051444;28;20423;-75
2023/04/12 03:53:31;;;;;;;22.98;10.60;;;12.30;98.40;;;;;;5050858;28;20051;-75
2023/04/12 03:56:35;;;;;;;19.73;11.15;;;12.20;98.60;;;;;;5050341;28;20511;-75
2023/04/12 03:59:43;;;;;;;27.67;12.70;;;12.20;98.80;;;;;;5050354;28;20056;-75
2023/04/12 04:02:49;;;;;;;19.80;10.75;;;15.20;99.40;;;;;;5050342;28;20047;-75
2023/04/12 04:05:55;;;;;;;17.48;10.77;;;12.20;99.00;;;;;;5050724;28;20512;-75
2023/04/12 04:09:00;;;;;;;15.90;9.50;;;;;;;;;;5051464;28;20044;-75
2023/04/12 04:12:05;;;;;;;16.20;10.77;;;12.50;98.80;;;;;;5050451;28;20493;-75
2023/04/12 04:15:10;;;;;;;19.77;10.57;;;12.20;98.60;;;;;;5050543;28;20048;-75
2023/04/12 04:18:15;;;;;;;25.20;10.05;;;;;;;;;;5050068;28;20036;-74
2023/04/12 04:21:21;;;;;;;17.63;10.20;;;12.10;98.60;;;;;;5050390;28;20040;-75
2023/04/12 04:24:25;;;;;;;19.15;10.77;;;12.20;98.80;;;;;;5049785;28;20515;-75
2023/04/12 04:27:37;;;;;;;24.00;10.88;;;;;;;;;;5049851;28;20114;-75
2023/04/12 04:30:44;;;;;;;20.27;11.82;;;;;;;;;;5049969;28;20052;-75
2023/04/12 04:33:52;;;;;;;33.13;12.57;;;;;;;;;;5049841;28;20032;-75
2023/04/12 04:37:01;;;;;;;19.23;10.40;;;12.20;98.90;;;;;;5049736;28;20511;-75
2023/04/12 04:40:16;;;;;;;21.52;10.75;;;12.20;98.90;;;;;;5049934;28;20052;-74
2023/04/12 04:43:21;;;;;;;26.48;12.32;;;;;;;;;;5050680;28;20059;-75
2023/04/12 04:46:29;;;;;;;26.75;11.75;;;12.20;98.50;;;;;;5049755;28;20108;-75
2023/04/12 04:49:33;;;;;;;22.33;12.13;;;;;;;;;;5050885;28;20048;-75
2023/04/12 04:52:43;;;;;;;22.48;10.45;;;12.00;98.60;;;;;;5049313;28;20048;-74
2023/04/12 04:55:57;;;;;;;26.13;11.63;;;11.30;98.70;;;;;;5049956;28;20056;-74
2023/04/12 04:59:02;;;;;;;23.55;10.95;;;;;;;;;;5049726;28;20400;-74
2023/04/12 05:02:07;;;;;;;33.28;12.80;;;12.30;98.50;;;;;;5049429;28;20056;-74
2023/04/12 05:05:12;;;;;;;37.60;11.70;;;;;;;;;;5053881;28;20044;-75
2023/04/12 05:08:16;;;;;;;25.88;10.90;;;14.20;98.60;;;;;;5053891;28;20043;-75
2023/04/12 05:11:20;;;;;;;19.88;10.27;;;;;;;;;;5053922;28;20036;-75
2023/04/12 05:14:25;;;;;;;20.27;11.18;;;;;;;;;;5053670;28;20068;-75
2023/04/12 05:17:29;;;;;;;25.00;10.18;;;12.70;97.70;;;;;;5053430;28;20044;-61
2023/04/12 05:20:33;;;;;;;25.02;10.07;;;12.80;98.10;;;;;;5054428;28;20059;-61
2023/04/12 05:23:43;;;;;;;23.40;10.30;;;13.00;97.70;;;;;;5053629;28;20044;-61
2023/04/12 05:26:50;;;;;;;22.00;10.17;;;14.50;97.60;;;;;;5053337;28;20056;-62
2023/04/12 05:29:58;;;;;;;19.90;9.85;;;13.40;97.30;;;;;;5053778;28;20761;-61
2023/04/12 05:33:03;;;;;;;12.60;8.73;;;13.70;96.90;;;;;;5053376;28;20040;-61
2023/04/12 05:36:07;;;;;;;18.70;9.07;;;;;;;;;;5053313;28;20044;-61
2023/04/12 05:39:11;;;;;;;21.38;8.43;;;;;;;;;;5053468;28;20559;-61
2023/04/12 05:42:16;;;;;;;19.15;8.50;;;;;;;;;;5053343;28;20044;-61
2023/04/12 05:45:21;;;;;;;17.02;7.97;;;;;;;;;;5053959;28;20393;-61
2023/04/12 05:48:25;;;;;;;17.90;7.95;;;;;;;;;;5053108;28;20048;-61
2023/04/12 05:51:32;;;;;;;18.63;8.85;;;;;;;;;;5053208;28;20044;-60
2023/04/12 05:54:36;;;;;;;23.65;8.68;;;14.90;94.70;;;;;;5053003;28;20067;-60
2023/04/12 05:57:40;;;;;;;16.20;8.82;;;15.10;94.30;;;;;;5053008;28;20048;-61
2023/04/12 06:00:44;;;;;;;12.15;7.20;;;15.30;94.30;;;;;;5052826;28;20051;-61
2023/04/12 06:03:48;;;;;;;17.92;7.05;;;15.50;94.00;;;;;;5053726;28;20072;-61
2023/04/12 06:06:52;;;;;;;25.50;7.90;;;15.50;94.00;;;;;;5052453;28;20365;-61
2023/04/12 06:09:58;;;;;;;19.48;7.60;;;15.50;94.20;;;;;;5052328;28;20459;-61
2023/04/12 06:13:02;;;;;;;15.60;7.13;;;15.70;94.10;;;;;;5051652;28;20358;-61
2023/04/12 06:16:07;;;;;;;14.05;6.53;;;15.70;93.70;;;;;;5050955;28;20504;-61
2023/04/12 06:19:11;;;;;;;17.23;8.38;;;15.60;93.40;;;;;;5052266;28;20048;-60
2023/04/12 06:22:15;;;;;;;24.00;8.18;;;15.80;93.50;;;;;;5053201;28;20056;-60
2023/04/12 06:25:21;;;;;;;19.85;8.13;;;16.20;93.50;;;;;;5052227;28;20080;-61
2023/04/12 06:28:26;;;;;;;14.48;6.78;;;16.90;92.70;;;;;;5052357;28;20144;-61
2023/04/12 06:31:30;;;;;;;16.90;5.93;;;17.30;91.80;;;;;;5040761;28;20044;-61
2023/04/12 06:34:35;;;;;;;10.43;4.85;;;17.70;91.70;;;;;;5052004;28;20044;-61
2023/04/12 06:37:44;;;;;;;10.98;6.10;;;18.10;90.80;;;;;;5051925;28;20492;-61
2023/04/12 06:40:48;;;;;;;9.75;4.93;;;18.40;90.60;;;;;;5052662;28;20056;-61
2023/04/12 06:43:52;;;;;;;9.20;4.88;;;18.70;89.70;;;;;;5052882;28;20044;-61
2023/04/12 06:46:56;;;;;;;10.25;4.90;;;18.90;88.30;;;;;;5052685;28;20043;-61
2023/04/12 06:50:00;;;;;;;12.02;4.60;;;19.00;88.40;;;;;;5052884;28;20040;-61
2023/04/12 06:53:05;;;;;;;11.80;4.57;;;19.10;87.70;;;;;;5053055;28;20044;-61
2023/04/12 06:56:09;;;;;;;11.77;4.60;;;19.20;86.40;;;;;;5052815;28;20040;-61
2023/04/12 06:59:13;;;;;;;22.23;5.00;;;19.20;85.20;;;;;;5052211;28;20032;-62
2023/04/12 07:02:17;;;;;;;8.98;3.22;;;19.30;84.70;;;;;;5051864;28;20508;-62
2023/04/12 07:05:22;;;;;;;9.07;2.67;;;19.60;83.70;;;;;;5052321;28;20052;-62
2023/04/12 07:08:26;;;;;;;13.02;3.97;;;19.70;83.30;;;;;;5052472;28;20385;-61
2023/04/12 07:11:30;;;;;;;11.63;3.72;;;19.90;83.50;;;;;;5052352;28;20368;-63
2023/04/12 07:14:35;;;;;;;9.88;3.53;;;20.00;82.60;;;;;;5052228;28;20044;-60
2023/04/12 07:17:39;;;;;;;7.30;3.30;;;20.20;81.80;;;;;;5052269;28;20060;-60
2023/04/12 07:20:45;;;;;;;11.23;4.07;;;20.40;81.80;;;;;;5051564;28;20059;-61
2023/04/12 07:23:50;;;;;;;11.52;3.67;;;20.70;81.50;;;;;;5052102;28;20047;-62
2023/04/12 07:26:54;;;;;;;7.45;3.35;;;20.80;80.10;;;;;;5051770;28;20064;-60
2023/04/12 07:29:58;;;;;;;11.48;3.90;;;20.80;79.60;;;;;;5051935;28;20044;-60
2023/04/12 07:33:05;;;;;;;10.75;3.30;;;20.70;79.90;;;;;;5051934;28;20048;-59
2023/04/12 07:36:09;;;;;;;9.30;3.55;;;20.70;80.30;;;;;;5051541;28;20535;-61
2023/04/12 07:39:13;;;;;;;12.13;3.83;;;20.50;79.30;;;;;;5051369;28;20048;-62
2023/04/12 07:42:17;;;;;;;9.52;3.60;;;20.40;80.20;;;;;;5051689;28;20055;-64
2023/04/12 07:45:21;;;;;;;10.63;3.95;;;20.50;81.30;;;;;;5051651;28;20040;-66
2023/04/12 07:48:25;;;;;;;15.60;4.20;;;20.70;80.90;;;;;;5051800;28;20044;-61
2023/04/12 07:51:29;;;;;;;14.50;5.45;;;20.80;79.50;;;;;;5051654;28;20496;-64
2023/04/12 07:54:33;;;;;;;7.90;4.70;;;20.80;79.20;;;;;;5051598;28;20048;-64
2023/04/12 07:57:37;;;;;;;9.65;3.53;;;20.90;79.90;;;;;;5051556;28;20043;-63
2023/04/12 08:00:42;;;;;;;9.98;3.78;;;21.00;80.00;;;;;;5051387;28;20056;-64
2023/04/12 08:03:46;;;;;;;11.55;4.25;;;21.00;78.50;;;;;;5051206;28;20055;-64
2023/04/12 08:06:51;;;;;;;10.48;4.05;;;20.60;78.90;;;;;;5051147;28;20048;-65
2023/04/12 08:09:55;;;;;;;15.07;4.38;;;20.10;79.50;;;;;;5051121;28;20048;-63
2023/04/12 08:12:59;;;;;;;17.75;5.25;;;19.70;80.70;;;;;;5051153;28;20519;-65
2023/04/12 08:16:05;;;;;;;15.15;3.92;;;19.80;80.60;;;;;;5051138;28;20060;-63
2023/04/12 08:19:09;;;;;;;11.35;3.97;;;19.70;80.60;;;;;;5051325;28;20155;-62
2023/04/12 08:22:13;;;;;;;10.75;3.88;;;19.70;81.00;;;;;;5051218;28;20048;-62
2023/04/12 08:25:17;;;;;;;16.50;4.00;;;19.70;81.00;;;;;;5050583;28;20052;-62
2023/04/12 08:28:21;;;;;;;13.05;4.30;;;19.90;80.90;;;;;;5050858;28;20044;-65
2023/04/12 08:31:25;;;;;;;8.43;3.85;;;20.10;80.20;;;;;;5050962;28;20044;-65
2023/04/12 08:34:30;;;;;;;14.35;4.50;;;20.30;80.00;;;;;;5050877;28;20056;-64
2023/04/12 08:37:34;;;;;;;16.23;4.68;;;20.50;79.20;;;;;;5050273;28;20044;-63
2023/04/12 08:40:42;;;;;;;6.18;3.65;;;20.60;79.70;;;;;;5050655;28;20052;-63
2023/04/12 08:43:46;;;;;;;16.60;4.72;;;20.70;80.40;;;;;;5050911;28;20036;-64
2023/04/12 08:46:50;;;;;;;14.35;3.90;;;20.80;79.10;;;;;;5050486;28;20035;-65
2023/04/12 08:49:56;;;;;;;14.48;4.18;;;20.80;79.50;;;;;;5049402;28;20044;-62
2023/04/12 08:53:01;;;;;;;14.57;4.65;;;20.90;79.10;;;;;;5050711;28;20403;-61
2023/04/12 08:56:10;;;;;;;14.75;4.82;;;21.00;79.70;;;;;;5050551;28;20043;-63
2023/04/12 08:59:14;;;;;;;14.15;4.70;;;21.10;78.70;;;;;;5049128;28;20051;-62
2023/04/12 09:02:18;;;;;;;18.15;4.03;;;21.20;78.30;;;;;;5050088;28;20507;-61
2023/04/12 09:05:28;;;;;;;16.48;3.65;;;21.30;77.80;;;;;;5050568;28;20036;-63
2023/04/12 09:08:33;;;;;;;7.77;3.07;;;21.20;78.10;;;;;;5050404;28;20448;-63
2023/04/12 09:11:37;;;;;;;8.38;2.50;;;21.00;77.50;;;;;;5050697;28;20312;-62
2023/04/12 09:14:43;;;;;;;4.95;2.00;;;20.90;77.60;;;;;;5050364;28;20508;-63
2023/04/12 09:17:48;;;;;;;15.95;3.05;;;20.70;78.30;;;;;;5050240;28;20040;-62
2023/04/12 09:21:10;;;;;;;8.55;2.72;;;20.60;79.00;;;;;;5050197;28;20056;-62
2023/04/12 09:24:14;;;;;;;5.95;2.25;;;20.60;79.10;;;;;;5050292;28;20044;-62
2023/04/12 09:27:20;;;;;;;8.27;3.33;;;20.50;79.00;;;;;;5049937;28;20052;-62
2023/04/12 09:30:23;;;;;;;11.38;3.30;;;20.40;79.80;;;;;;5050361;28;20056;-61
2023/04/12 09:33:38;;;;;;;7.63;2.45;;;20.30;80.20;;;;;;5050011;28;20044;-62
2023/04/12 09:36:42;;;;;;;10.30;2.67;;;20.40;80.40;;;;;;5050195;28;20479;-61
2023/04/12 09:39:46;;;;;;;14.57;3.17;;;20.60;80.90;;;;;;5050239;28;20056;-61
2023/04/12 09:42:52;;;;;;;13.93;2.45;;;20.70;79.60;;;;;;5050443;28;20053;-63
2023/04/12 09:46:09;;;;;;;7.30;2.50;;;20.80;79.30;;;;;;5049994;28;20397;-63
2023/04/12 09:49:13;;;;;;;6.35;2.25;;;20.90;79.40;;;;;;5051292;28;20043;-61
2023/04/12 09:52:17;;;;;;;9.05;2.13;;;21.10;79.70;;;;;;5053938;28;20057;-62
2023/04/12 09:55:25;;;;;;;6.38;2.42;;;21.30;78.90;;;;;;5053767;28;20044;-62
2023/04/12 09:58:31;;;;;;;7.35;2.08;;;21.40;78.80;;;;;;5053641;28;20044;-62
2023/04/12 10:01:38;;;;;;;10.10;2.22;;;21.50;78.60;;;;;;5052809;28;20419;-63
2023/04/12 10:04:47;;;;;;;8.82;2.28;;;21.50;77.80;;;;;;5052999;28;20044;-63
2023/04/12 10:07:52;;;;;;;12.57;2.38;;;21.60;77.40;;;;;;5053758;28;20044;-63
2023/04/12 10:10:56;;;;;;;6.95;2.10;;;21.60;78.00;;;;;;5053369;28;20044;-63
2023/04/12 10:14:05;;;;;;;10.68;3.08;;;21.70;78.10;;;;;;5053527;28;20044;-63
2023/04/12 10:17:11;;;;;;;9.25;2.50;;;21.80;77.60;;;;;;5053360;28;20040;-63
2023/04/12 10:20:17;;;;;;;7.03;2.05;;;21.80;78.00;;;;;;5053567;28;20071;-63
2023/04/12 10:23:21;;;;;;;12.60;2.03;;;21.90;76.90;;;;;;5053501;28;20067;-62
2023/04/12 10:26:26;;;;;;;6.15;1.92;;;21.90;77.10;;;;;;5052452;28;20060;-62
2023/04/12 10:29:33;;;;;;;6.38;2.10;;;22.00;77.00;;;;;;5052233;28;20039;-63
2023/04/12 10:32:37;;;;;;;7.90;2.50;;;22.00;76.50;;;;;;5052939;28;20064;-62
2023/04/12 10:36:09;;;;;;;5.72;1.70;;;22.00;76.60;;;;;;5053070;28;20381;-62
2023/04/12 10:39:14;;;;;;;9.93;2.80;;;22.00;77.70;;;;;;5052926;28;20604;-62
2023/04/12 10:42:28;;;;;;;7.20;2.33;;;22.10;77.60;;;;;;5053193;28;20072;-61
2023/04/12 10:45:35;;;;;;;5.93;1.92;;;22.00;76.70;;;;;;5051455;28;20044;-61
2023/04/12 10:48:52;;;;;;;7.93;2.10;;;22.00;77.50;;;;;;5053019;28;20044;-61
2023/04/12 10:52:08;;;;;;;5.30;2.10;;;22.10;76.70;;;;;;5052589;28;20044;-61
2023/04/12 10:55:28;;;;;;;5.65;2.42;;;22.10;76.60;;;;;;5052738;28;20392;-61
2023/04/12 10:58:48;;;;;;;4.13;1.45;;;22.20;76.50;;;;;;5052456;28;20048;-60
2023/04/12 11:02:10;;;;;;;6.90;1.88;;;22.10;76.20;;;;;;5050995;28;20052;-60
2023/04/12 11:05:17;;;;;;;5.97;2.17;;;22.10;76.00;;;;;;5051507;28;20044;-60
2023/04/12 11:08:42;;;;;;;7.18;2.25;;;22.10;76.20;;;;;;5051826;28;20508;-60
2023/04/12 11:12:04;;;;;;;4.32;2.05;;;22.10;76.90;;;;;;5051426;28;20044;-61
2023/04/12 11:15:12;;;;;;;11.30;2.22;;;22.00;76.50;;;;;;5052275;28;20036;-60
2023/04/12 11:18:35;;;;;;;6.72;2.17;;;22.00;77.20;;;;;;5052481;28;20154;-60
2023/04/12 11:21:39;;;;;;;6.72;2.28;;;22.00;77.40;;;;;;5052011;28;20052;-59
2023/04/12 11:24:45;;;;;;;7.32;2.35;;;21.90;77.00;;;;;;5051787;28;20051;-60
2023/04/12 11:27:50;;;;;;;11.15;2.97;;;21.90;77.80;;;;;;5051931;28;20052;-59
2023/04/12 11:30:55;;;;;;;9.15;3.10;;;21.80;78.00;;;;;;5051781;28;20064;-60
2023/04/12 11:33:59;;;;;;;11.48;2.90;;;21.80;78.50;;;;;;5052184;28;20142;-59
2023/04/12 11:37:08;;;;;;;8.05;2.50;;;21.80;78.10;;;;;;5051839;28;20108;-59
2023/04/12 11:40:13;;;;;;;7.70;2.67;;;21.80;78.30;;;;;;5051868;28;20048;-60
2023/04/12 11:43:20;;;;;;;12.88;2.20;;;21.80;78.80;;;;;;5051842;28;20503;-59
2023/04/12 11:46:26;;;;;;;6.18;2.22;;;21.80;78.60;;;;;;5051656;28;20044;-59
2023/04/12 11:49:30;;;;;;;5.15;2.50;;;21.80;78.10;;;;;;5051898;28;20064;-60
2023/04/12 11:52:34;;;;;;;11.18;2.38;;;21.80;78.70;;;;;;5051769;28;20040;-60
2023/04/12 11:55:38;;;;;;;3.80;1.65;;;21.80;78.70;;;;;;5051444;28;20044;-60
2023/04/12 11:58:45;;;;;;;33.50;5.40;;;21.80;78.80;;;;;;5051609;28;20040;-60
2023/04/12 12:01:53;;;;;;;10.02;2.20;;;21.80;79.40;;;;;;5051468;28;20417;-59
2023/04/12 12:04:58;;;;;;;25.98;3.53;;;21.70;79.60;;;;;;5051484;28;20056;-61
2023/04/12 12:08:06;;;;;;;13.55;2.40;;;21.70;79.60;;;;;;5051576;28;20040;-60
2023/04/12 12:11:10;;;;;;;8.27;1.92;;;21.60;80.10;;;;;;5051485;28;20393;-61
2023/04/12 12:14:20;;;;;;;7.30;2.25;;;21.60;80.90;;;;;;5050819;28;20047;-62
2023/04/12 12:17:26;;;;;;;9.60;2.58;;;21.60;80.50;;;;;;5049712;28;20040;-62
2023/04/12 12:20:30;;;;;;;7.85;2.20;;;21.50;80.70;;;;;;5050868;28;20543;-61
2023/04/12 12:23:35;;;;;;;12.73;2.95;;;21.40;81.50;;;;;;5051089;28;20051;-61
2023/04/12 12:26:39;;;;;;;10.18;2.72;;;21.40;81.50;;;;;;5050744;28;20409;-61
2023/04/12 12:29:43;;;;;;;16.02;3.20;;;21.40;81.60;;;;;;5050016;28;20221;-60
2023/04/12 12:32:51;;;;;;;11.75;2.65;;;21.40;81.40;;;;;;5050830;28;20048;-61
2023/04/12 12:35:58;;;;;;;6.05;2.17;;;21.40;81.70;;;;;;5050992;28;20389;-61
2023/04/12 12:39:10;;;;;;;7.88;2.40;;;21.40;82.00;;;;;;5050835;28;20047;-61
2023/04/12 12:42:14;;;;;;;14.35;2.38;;;21.30;81.80;;;;;;5050648;28;20052;-61
2023/04/12 12:45:20;;;;;;;8.90;2.42;;;21.30;82.10;;;;;;5050739;28;20044;-61
2023/04/12 12:48:24;;;;;;;10.68;2.17;;;21.20;82.10;;;;;;5050543;28;20040;-61
2023/04/12 12:51:28;;;;;;;25.23;3.90;;;21.20;82.60;;;;;;5050533;28;20051;-61
2023/04/12 12:54:32;;;;;;;14.52;3.30;;;21.10;82.30;;;;;;5050682;28;20048;-61
2023/04/12 12:57:36;;;;;;;8.77;2.88;;;21.10;82.70;;;;;;5050617;28;20048;-61
2023/04/12 13:00:40;;;;;;;5.82;2.75;;;21.00;83.20;;;;;;5050591;28;20052;-61
2023/04/12 13:03:44;;;;;;;7.90;2.65;;;21.00;83.70;;;;;;5050888;28;20060;-61
2023/04/12 13:06:48;;;;;;;15.98;2.80;;;21.00;83.90;;;;;;5050888;28;20056;-62
2023/04/12 13:09:52;;;;;;;8.82;2.40;;;21.00;83.90;;;;;;5050643;28;20047;-61
2023/04/12 13:12:57;;;;;;;7.68;2.60;;;21.00;84.10;;;;;;5050795;28;20040;-61
2023/04/12 13:16:02;;;;;;;9.55;2.50;;;21.00;84.60;;;;;;5050419;28;20048;-60
2023/04/12 13:19:06;;;;;;;15.35;3.05;;;20.90;84.30;;;;;;5050526;28;20044;-60
2023/04/12 13:22:10;;;;;;;6.03;2.20;;;20.90;84.60;;;;;;5050296;28;20120;-60
2023/04/12 13:25:14;;;;;;;7.43;2.63;;;20.90;84.80;;;;;;5053393;28;20048;-60
2023/04/12 13:28:19;;;;;;;7.75;2.40;;;20.90;84.80;;;;;;5054176;28;20051;-60
2023/04/12 13:31:23;;;;;;;7.05;2.47;;;20.90;84.70;;;;;;5054210;28;20036;-59
2023/04/12 13:34:27;;;;;;;15.95;2.85;;;20.80;84.50;;;;;;5054338;28;20052;-60
2023/04/12 13:37:32;;;;;;;16.13;2.90;;;20.70;84.70;;;;;;5054157;28;20036;-60
2023/04/12 13:40:36;;;;;;;7.60;2.78;;;20.60;85.70;;;;;;5054300;28;20048;-60
2023/04/12 13:43:40;;;;;;;9.77;2.33;;;20.60;86.20;;;;;;5054001;28;20056;-60
2023/04/12 13:46:44;;;;;;;9.38;2.42;;;20.60;85.80;;;;;;5053915;28;20048;-60
2023/04/12 13:49:48;;;;;;;8.73;2.50;;;20.60;85.90;;;;;;5054157;28;20056;-62
2023/04/12 13:52:52;;;;;;;7.07;2.20;;;20.60;86.20;;;;;;5053641;28;20052;-60
2023/04/12 13:55:56;;;;;;;10.18;2.55;;;20.60;85.70;;;;;;5053363;28;20052;-60
2023/04/12 13:59:02;;;;;;;8.18;2.22;;;20.50;85.90;;;;;;5053539;28;20068;-61
2023/04/12 14:02:06;;;;;;;17.33;2.97;;;20.50;86.00;;;;;;5053337;28;20155;-59
2023/04/12 14:05:10;;;;;;;15.63;2.50;;;20.60;86.10;;;;;;5053652;28;20044;-60
2023/04/12 14:08:14;;;;;;;13.05;2.70;;;20.60;85.60;;;;;;5053180;28;20059;-60
2023/04/12 14:11:18;;;;;;;7.65;2.50;;;20.50;85.80;;;;;;5052262;28;20040;-60
2023/04/12 14:14:24;;;;;;;9.52;2.80;;;20.40;86.10;;;;;;5053319;28;20048;-59
2023/04/12 14:17:30;;;;;;;12.25;2.38;;;20.40;86.50;;;;;;5053153;28;20044;-59
2023/04/12 14:20:35;;;;;;;11.70;2.70;;;20.40;86.50;;;;;;5053203;28;20071;-59
2023/04/12 14:23:40;;;;;;;9.82;3.10;;;20.40;86.30;;;;;;5053546;28;20551;-59
2023/04/12 14:26:44;;;;;;;5.97;1.73;;;20.30;86.70;;;;;;5053257;28;20052;-59
2023/04/12 14:29:48;;;;;;;12.10;2.92;;;20.30;86.90;;;;;;5053283;28;20044;-59
2023/04/12 14:32:52;;;;;;;11.13;3.13;;;20.20;86.40;;;;;;5053432;28;20520;-59
2023/04/12 14:35:56;;;;;;;8.68;2.90;;;20.20;86.70;;;;;;5051733;28;20571;-59
2023/04/12 14:39:02;;;;;;;12.65;2.67;;;20.20;87.00;;;;;;5053094;28;20408;-60
2023/04/12 14:42:06;;;;;;;9.05;2.70;;;20.20;86.90;;;;;;5053086;28;20052;-59
2023/04/12 14:45:11;;;;;;;9.98;3.10;;;20.20;87.10;;;;;;5052880;28;20044;-59
2023/04/12 14:48:15;;;;;;;19.58;4.45;;;20.20;87.10;;;;;;5053106;28;20040;-59
2023/04/12 14:51:19;;;;;;;17.40;2.97;;;20.10;87.30;;;;;;5053055;28;20496;-59
2023/04/12 14:54:22;;;;;;;13.25;3.30;;;20.10;87.90;;;;;;5053021;28;20087;-58
2023/04/12 14:57:27;;;;;;;10.70;3.08;;;20.00;88.30;;;;;;5052524;28;20120;-60
2023/04/12 15:00:32;;;;;;;13.60;2.80;;;20.00;88.10;;;;;;5052085;28;20060;-60
2023/04/12 15:03:38;;;;;;;12.27;2.90;;;19.90;88.40;;;;;;5052546;28;20514;-60
2023/04/12 15:06:43;;;;;;;14.27;2.75;;;19.90;88.60;;;;;;5052126;28;20523;-61
2023/04/12 15:09:47;;;;;;;12.13;3.13;;;19.90;88.20;;;;;;5052383;28;20044;-59
2023/04/12 15:12:51;;;;;;;13.05;3.20;;;19.90;88.50;;;;;;5052613;28;20044;-60
2023/04/12 15:15:55;;;;;;;15.25;3.42;;;19.80;88.40;;;;;;5051835;28;20048;-60
2023/04/12 15:18:59;;;;;;;21.02;3.35;;;19.80;88.20;;;;;;5051975;28;20048;-60
2023/04/12 15:22:03;;;;;;;12.00;3.13;;;19.80;88.40;;;;;;5052094;28;20075;-60
2023/04/12 15:25:08;;;;;;;12.02;3.72;;;19.70;88.80;;;;;;5051687;28;20507;-60
2023/04/12 15:28:12;;;;;;;10.60;3.03;;;19.70;88.80;;;;;;5051506;28;20638;-60
2023/04/12 15:31:17;;;;;;;9.45;2.58;;;19.60;88.70;;;;;;5052030;28;20052;-60
2023/04/12 15:34:23;;;;;;;14.48;2.67;;;19.60;89.00;;;;;;5052162;28;20063;-61
2023/04/12 15:37:28;;;;;;;7.70;2.35;;;19.60;88.90;;;;;;5051696;28;20052;-60
2023/04/12 15:40:32;;;;;;;15.43;2.95;;;19.50;89.40;;;;;;5051366;28;20044;-60
2023/04/12 15:43:35;;;;;;;16.88;3.63;;;19.50;89.30;;;;;;5051911;28;20052;-61
2023/04/12 15:46:40;;;;;;;12.02;3.10;;;19.50;89.70;;;;;;5051485;28;20044;-60
2023/04/12 15:49:46;;;;;;;15.00;3.00;;;19.40;89.80;;;;;;5051342;28;20059;-61
2023/04/12 15:52:52;;;;;;;13.90;3.40;;;19.40;90.00;;;;;;5051391;28;20095;-61
2023/04/12 15:55:56;;;;;;;15.68;3.35;;;19.40;90.10;;;;;;5051489;28;20385;-61
2023/04/12 15:59:00;;;;;;;11.40;3.25;;;19.40;90.30;;;;;;5051254;28;20047;-60
2023/04/12 16:02:08;;;;;;;12.55;2.65;;;19.40;90.40;;;;;;5050961;28;20056;-60
2023/04/12 16:05:12;;;;;;;14.45;3.50;;;19.30;90.40;;;;;;5050939;28;20055;-59
2023/04/12 16:08:16;;;;;;;18.55;2.97;;;19.30;90.50;;;;;;5051384;28;20060;-60
2023/04/12 16:11:22;;;;;;;13.57;3.30;;;19.20;90.60;;;;;;5051495;28;20040;-60
2023/04/12 16:14:27;;;;;;;11.65;3.22;;;19.20;90.90;;;;;;5051028;28;20040;-60